createdAt,value
2023-04-02T09:40:33.609Z,6.18
2023-04-02T09:43:12.212Z,6.40
2023-04-02T09:45:55.105Z,6.48
2023-04-02T09:48:33.424Z,6.58
2023-04-02T09:51:18.167Z,6.55
2023-04-02T09:54:15.365Z,6.52
2023-04-02T09:57:06.927Z,6.43
2023-04-02T09:59:41.865Z,6.51
2023-04-02T10:02:33.582Z,6.71
2023-04-02T10:05:40.649Z,6.85
2023-04-02T10:08:31.988Z,6.98
2023-04-02T10:11:06.607Z,7.13
2023-04-02T10:13:44.572Z,7.28
2023-04-02T10:16:39.017Z,7.37
2023-04-02T10:19:31.691Z,7.46
2023-04-02T10:22:09.380Z,7.45
2023-04-02T10:24:40.065Z,7.51
2023-04-02T10:27:34.493Z,7.67
2023-04-02T10:30:15.974Z,7.75
2023-04-02T10:32:57.937Z,7.77
2023-04-02T10:36:09.822Z,7.88
2023-04-02T10:38:53.062Z,8.12
2023-04-02T10:41:43.938Z,8.28
2023-04-02T10:44:25.071Z,8.31
2023-04-02T10:47:03.636Z,8.25
2023-04-02T10:49:56.822Z,8.27
2023-04-02T10:52:36.640Z,8.39
2023-04-02T10:55:23.463Z,8.46
2023-04-02T10:57:58.494Z,8.63
2023-04-02T11:00:34.164Z,8.77
2023-04-02T11:03:19.339Z,8.82
2023-04-02T11:05:54.121Z,8.91
2023-04-02T11:08:48.695Z,8.90
2023-04-02T11:11:32.590Z,8.86
2023-04-02T11:14:11.132Z,9.06
2023-04-02T11:16:44.648Z,9.15
2023-04-02T11:19:15.666Z,9.39
2023-04-02T11:21:59.954Z,9.55
2023-04-02T11:24:34.366Z,9.62
2023-04-02T11:27:12.877Z,9.66
2023-04-02T11:30:05.020Z,9.72
2023-04-02T11:32:37.603Z,9.79
2023-04-02T11:35:32.528Z,9.83
2023-04-02T11:38:11.699Z,9.93
2023-04-02T11:40:45.215Z,9.97
2023-04-02T11:43:33.434Z,9.97
2023-04-02T11:48:50.913Z,9.90
2023-04-02T11:51:21.453Z,9.87
2023-04-02T11:53:58.608Z,9.84
2023-04-02T11:56:43.889Z,9.95
2023-04-02T11:59:32.620Z,10.04
2023-04-02T12:02:14.681Z,10.18
2023-04-02T12:05:27.251Z,10.24
2023-04-02T12:08:23.566Z,10.64
2023-04-02T12:11:00.944Z,11.52
2023-04-02T12:13:40.211Z,13.04
2023-04-02T12:16:14.624Z,14.21
2023-04-02T12:18:53.985Z,14.92
2023-04-02T12:21:27.794Z,15.72
2023-04-02T12:23:59.664Z,16.04
2023-04-02T12:26:32.326Z,15.91
2023-04-02T12:29:36.430Z,16.47
2023-04-02T12:32:20.507Z,17.49
2023-04-02T12:34:52.588Z,18.57
2023-04-02T12:37:26.514Z,19.61
2023-04-02T12:40:07.685Z,20.43
2023-04-02T12:42:38.529Z,21.28
2023-04-02T12:45:30.766Z,21.63
2023-04-02T12:48:05.537Z,21.98
2023-04-02T12:50:36.511Z,22.35
2023-04-02T12:53:21.258Z,22.60
2023-04-02T12:55:52.989Z,23.09
2023-04-02T12:58:30.874Z,23.51
2023-04-02T13:01:21.141Z,23.95
2023-04-02T13:04:06.722Z,24.45
2023-04-02T13:06:37.396Z,24.83
2023-04-02T13:09:30.262Z,25.25
2023-04-02T13:12:01.427Z,25.59
2023-04-02T13:14:31.993Z,26.14
2023-04-02T13:17:02.277Z,26.26
2023-04-02T13:19:34.294Z,26.33
2023-04-02T13:22:24.404Z,26.60
2023-04-02T13:24:56.453Z,26.81
2023-04-02T13:27:26.719Z,26.80
2023-04-02T13:29:56.849Z,26.63
2023-04-02T13:32:28.626Z,26.53
2023-04-02T13:34:58.910Z,26.34
2023-04-02T13:37:29.236Z,26.39
2023-04-02T13:39:59.563Z,26.39
2023-04-02T13:42:29.885Z,26.60
2023-04-02T13:45:00.169Z,26.56
2023-04-02T13:47:30.451Z,26.75
2023-04-02T13:50:00.824Z,27.13
2023-04-02T13:52:31.105Z,27.06
2023-04-02T13:55:03.988Z,26.93
2023-04-02T13:57:34.768Z,26.69
2023-04-02T14:00:06.144Z,26.68
2023-04-02T14:02:43.889Z,26.77
2023-04-02T14:05:26.955Z,26.72
2023-04-02T14:08:32.621Z,27.04
2023-04-02T14:11:05.903Z,27.06
2023-04-02T14:13:51.584Z,26.81
2023-04-02T14:16:51.524Z,26.83
2023-04-02T14:19:33.891Z,26.69
2023-04-02T14:22:25.541Z,26.38
2023-04-02T14:25:23.424Z,26.51
2023-04-02T14:28:23.767Z,26.93
2023-04-02T14:31:32.798Z,26.96
2023-04-02T14:34:32.273Z,26.86
2023-04-02T14:37:13.802Z,26.67
2023-04-02T14:40:02.774Z,26.27
2023-04-02T14:43:22.800Z,26.14
2023-04-02T14:45:55.620Z,26.00
2023-04-02T14:48:47.977Z,25.58
2023-04-02T14:51:27.564Z,25.24
2023-04-02T14:54:13.064Z,25.24
2023-04-02T14:56:52.556Z,25.17
2023-04-02T14:59:28.330Z,25.07
2023-04-02T15:02:15.171Z,25.03
2023-04-02T15:05:02.383Z,24.70
2023-04-02T15:07:50.005Z,24.54
2023-04-02T15:10:26.378Z,24.26
2023-04-02T15:12:58.583Z,24.48
2023-04-02T15:15:40.286Z,24.15
2023-04-02T15:18:18.501Z,23.85
2023-04-02T15:21:29.520Z,23.52
2023-04-02T15:24:41.095Z,23.42
2023-04-02T15:27:38.888Z,23.64
2023-04-02T15:30:19.987Z,23.71
2023-04-02T15:32:52.673Z,23.72
2023-04-02T15:35:46.337Z,23.67
2023-04-02T15:38:26.288Z,23.62
2023-04-02T15:41:04.661Z,23.57
2023-04-02T15:43:53.462Z,23.15
2023-04-02T15:46:42.170Z,22.91
2023-04-02T15:49:27.525Z,22.58
2023-04-02T15:52:13.331Z,22.39
2023-04-02T15:54:53.783Z,22.03
2023-04-02T15:57:53.304Z,21.80
2023-04-02T16:00:30.721Z,21.08
2023-04-02T16:03:22.538Z,20.27
2023-04-02T16:06:25.618Z,18.89
2023-04-02T16:09:23.516Z,17.27
2023-04-02T16:12:02.716Z,15.79
2023-04-02T16:14:34.072Z,14.79
2023-04-02T16:17:23.846Z,13.98
2023-04-02T16:20:06.578Z,13.15
2023-04-02T16:22:44.446Z,12.53
2023-04-02T16:25:28.376Z,11.96
2023-04-02T16:28:45.953Z,11.51
2023-04-02T16:31:35.526Z,10.98
2023-04-02T16:34:05.637Z,10.62
2023-04-02T16:36:52.469Z,10.34
2023-04-02T16:39:22.586Z,9.86
2023-04-02T16:42:10.717Z,9.51
2023-04-02T16:45:03.338Z,9.33
2023-04-02T16:47:53.305Z,9.15
2023-04-02T16:50:58.524Z,8.96
2023-04-02T16:53:34.452Z,8.70
2023-04-02T16:56:17.068Z,8.49
2023-04-02T16:59:17.020Z,8.20
2023-04-02T17:02:04.046Z,7.96
2023-04-02T17:04:46.611Z,7.80
2023-04-02T17:07:31.562Z,7.62
2023-04-02T17:10:20.169Z,7.46
2023-04-02T17:13:19.709Z,7.41
2023-04-02T17:16:21.000Z,7.28
2023-04-02T17:18:57.918Z,7.08
2023-04-02T17:21:29.584Z,6.89
2023-04-02T17:24:17.543Z,6.75
2023-04-02T17:27:04.421Z,6.62
2023-04-02T17:29:44.955Z,6.52
2023-04-02T17:32:22.913Z,6.37
2023-04-02T17:34:53.152Z,6.34
2023-04-02T17:37:40.233Z,6.22
2023-04-02T17:40:24.365Z,6.17
2023-04-02T17:43:05.584Z,6.06
2023-04-02T17:45:46.469Z,5.87
2023-04-02T17:48:37.700Z,5.81
2023-04-02T17:51:30.681Z,5.83
2023-04-02T17:54:20.841Z,5.75
2023-04-02T17:57:19.784Z,5.65
2023-04-02T17:59:55.818Z,5.58
2023-04-02T18:02:41.082Z,5.52
2023-04-02T18:05:41.140Z,5.47
2023-04-02T18:08:51.806Z,5.39
2023-04-02T18:11:43.589Z,5.28
2023-04-02T18:14:35.065Z,5.28
2023-04-02T18:17:11.173Z,5.24
2023-04-02T18:19:54.432Z,5.19
2023-04-02T18:22:42.268Z,5.10
2023-04-02T18:25:28.360Z,5.04
2023-04-02T18:28:01.448Z,4.98
2023-04-02T18:30:37.971Z,4.95
2023-04-02T18:33:19.193Z,4.86
2023-04-02T18:36:24.263Z,4.84
2023-04-02T18:39:08.503Z,4.85
2023-04-02T18:42:17.394Z,4.86
2023-04-02T18:45:04.489Z,4.80
2023-04-02T18:47:34.632Z,4.75
2023-04-02T18:50:23.086Z,4.62
2023-04-02T18:52:55.353Z,4.62
2023-04-02T18:55:29.904Z,4.58
2023-04-02T18:58:12.784Z,4.44
2023-04-02T19:00:45.555Z,4.47
2023-04-02T19:03:22.003Z,4.48
2023-04-02T19:06:01.409Z,4.49
2023-04-02T19:08:39.353Z,4.46
2023-04-02T19:11:31.664Z,4.38
2023-04-02T19:14:05.499Z,4.33
2023-04-02T19:17:02.573Z,4.28
2023-04-02T19:19:41.982Z,4.30
2023-04-02T19:22:42.519Z,4.33
2023-04-02T19:25:43.632Z,4.31
2023-04-02T19:28:19.814Z,4.26
2023-04-02T19:31:03.885Z,4.18
2023-04-02T19:33:52.398Z,4.11
2023-04-02T19:36:31.748Z,4.08
2023-04-02T19:39:06.037Z,4.09
2023-04-02T19:41:48.069Z,4.08
2023-04-02T19:44:18.983Z,4.06
2023-04-02T19:46:51.651Z,4.05
2023-04-02T19:49:33.904Z,4.07
2023-04-02T19:52:04.195Z,4.06
2023-04-02T19:54:35.331Z,4.04
2023-04-02T19:57:06.843Z,3.95
2023-04-02T19:59:37.101Z,4.03
2023-04-02T20:02:10.527Z,4.02
2023-04-02T20:04:41.025Z,3.97
2023-04-02T20:07:11.276Z,3.92
2023-04-02T20:09:41.495Z,3.93
2023-04-02T20:12:12.447Z,3.95
2023-04-02T20:14:44.723Z,3.92
2023-04-02T20:17:14.874Z,3.94
2023-04-02T20:19:45.062Z,3.92
2023-04-02T20:22:15.177Z,3.91
2023-04-02T20:24:45.288Z,3.89
2023-04-02T20:27:15.600Z,3.88
2023-04-02T20:29:46.344Z,3.86
2023-04-02T20:32:17.675Z,3.85
2023-04-02T20:34:48.368Z,3.91
2023-04-02T20:37:18.437Z,3.88
2023-04-02T20:39:48.800Z,3.84
2023-04-02T20:42:18.976Z,3.82
2023-04-02T20:44:49.178Z,3.77
2023-04-02T20:47:19.648Z,3.70
2023-04-02T20:49:50.607Z,3.77
2023-04-02T20:52:22.158Z,3.76
2023-04-02T20:54:52.332Z,3.66
2023-04-02T20:57:23.088Z,3.71
2023-04-02T20:59:54.736Z,3.69
2023-04-02T21:02:25.185Z,3.68
2023-04-02T21:04:56.548Z,3.67
2023-04-02T21:07:26.718Z,3.64
2023-04-02T21:09:56.985Z,3.62
2023-04-02T21:12:27.124Z,3.61
2023-04-02T21:15:01.100Z,3.61
2023-04-02T21:17:32.687Z,3.62
2023-04-02T21:20:03.659Z,3.61
2023-04-02T21:22:33.942Z,3.65
2023-04-02T21:25:04.184Z,3.61
2023-04-02T21:27:34.307Z,3.59
2023-04-02T21:30:05.143Z,3.61
2023-04-02T21:32:36.075Z,3.60
2023-04-02T21:35:08.889Z,3.61
2023-04-02T21:37:39.139Z,3.58
2023-04-02T21:40:09.608Z,3.54
2023-04-02T21:42:39.772Z,3.50
2023-04-02T21:45:10.411Z,3.49
2023-04-02T21:47:40.655Z,3.48
2023-04-02T21:50:11.105Z,3.49
2023-04-02T21:52:41.176Z,3.41
2023-04-02T21:55:11.299Z,3.47
2023-04-02T21:57:41.523Z,3.40
2023-04-02T22:00:13.849Z,3.36
2023-04-02T22:02:44.062Z,3.36
2023-04-02T22:05:14.346Z,3.37
2023-04-02T22:07:44.532Z,3.36
2023-04-02T22:10:14.664Z,3.39
2023-04-02T22:12:44.842Z,3.39
2023-04-02T22:15:15.152Z,3.38
2023-04-02T22:17:45.356Z,3.36
2023-04-02T22:20:15.771Z,3.35
2023-04-02T22:22:45.871Z,3.34
2023-04-02T22:25:16.000Z,3.28
2023-04-02T22:27:46.154Z,3.29
2023-04-02T22:30:16.293Z,3.26
2023-04-02T22:32:46.583Z,3.24
2023-04-02T22:35:17.388Z,3.26
2023-04-02T22:37:47.508Z,3.27
2023-04-02T22:40:18.002Z,3.27
2023-04-02T22:42:49.028Z,3.28
2023-04-02T22:45:21.394Z,3.27
2023-04-02T22:47:51.610Z,3.25
2023-04-02T22:50:22.193Z,3.24
2023-04-02T22:52:52.316Z,3.20
2023-04-02T22:55:22.666Z,3.12
2023-04-02T22:57:53.028Z,3.18
2023-04-02T23:00:23.492Z,3.21
2023-04-02T23:02:53.677Z,3.18
2023-04-02T23:05:23.848Z,3.19
2023-04-02T23:07:54.014Z,3.21
2023-04-02T23:10:24.173Z,3.18
2023-04-02T23:13:00.845Z,3.12
2023-04-02T23:15:31.230Z,3.11
2023-04-02T23:18:01.466Z,3.09
2023-04-02T23:20:31.532Z,3.08
2023-04-02T23:23:01.678Z,3.10
2023-04-02T23:25:31.799Z,3.05
2023-04-02T23:28:01.876Z,3.00
2023-04-02T23:30:32.222Z,2.92
2023-04-02T23:33:04.629Z,2.88
2023-04-02T23:35:35.414Z,2.91
2023-04-02T23:38:07.917Z,2.88
2023-04-02T23:40:38.263Z,2.88
2023-04-02T23:43:08.441Z,2.86
2023-04-02T23:45:38.607Z,2.86
2023-04-02T23:48:08.772Z,2.90
2023-04-02T23:50:39.079Z,2.94
2023-04-02T23:53:09.338Z,2.95
2023-04-02T23:55:40.122Z,2.93
2023-04-02T23:58:10.390Z,2.87
